sensor_id;sensor_type;location;lat;lon;timestamp;P1;durP1;ratioP1;P2;durP2;ratioP2
85160;SDS011;75526;43.726;4.346;2024-03-25T00:00:15;4.35;;;1.10;;
85160;SDS011;75526;43.726;4.346;2024-03-25T00:02:41;3.88;;;1.20;;
85160;SDS011;75526;43.726;4.346;2024-03-25T00:05:08;4.60;;;1.13;;
85160;SDS011;75526;43.726;4.346;2024-03-25T00:07:34;4.10;;;1.27;;
85160;SDS011;75526;43.726;4.346;2024-03-25T00:10:01;3.70;;;1.20;;
85160;SDS011;75526;43.726;4.346;2024-03-25T00:12:27;7.55;;;1.25;;
85160;SDS011;75526;43.726;4.346;2024-03-25T00:14:53;3.17;;;1.00;;
85160;SDS011;75526;43.726;4.346;2024-03-25T00:17:19;4.60;;;1.10;;
85160;SDS011;75526;43.726;4.346;2024-03-25T00:19:46;3.75;;;1.20;;
85160;SDS011;75526;43.726;4.346;2024-03-25T00:22:16;4.88;;;1.33;;
85160;SDS011;75526;43.726;4.346;2024-03-25T00:24:42;3.10;;;1.08;;
85160;SDS011;75526;43.726;4.346;2024-03-25T00:27:08;2.67;;;1.00;;
85160;SDS011;75526;43.726;4.346;2024-03-25T00:29:35;3.97;;;1.30;;
85160;SDS011;75526;43.726;4.346;2024-03-25T00:32:01;3.63;;;1.50;;
85160;SDS011;75526;43.726;4.346;2024-03-25T00:34:27;4.25;;;1.55;;
85160;SDS011;75526;43.726;4.346;2024-03-25T00:36:53;4.97;;;1.30;;
85160;SDS011;75526;43.726;4.346;2024-03-25T00:39:19;5.05;;;1.20;;
85160;SDS011;75526;43.726;4.346;2024-03-25T00:41:45;3.40;;;1.00;;
85160;SDS011;75526;43.726;4.346;2024-03-25T00:44:11;3.25;;;1.10;;
85160;SDS011;75526;43.726;4.346;2024-03-25T00:46:37;5.13;;;1.33;;
85160;SDS011;75526;43.726;4.346;2024-03-25T00:49:03;2.90;;;1.13;;
85160;SDS011;75526;43.726;4.346;2024-03-25T00:51:29;3.45;;;1.10;;
85160;SDS011;75526;43.726;4.346;2024-03-25T00:53:55;3.40;;;1.30;;
85160;SDS011;75526;43.726;4.346;2024-03-25T00:56:21;2.75;;;0.90;;
85160;SDS011;75526;43.726;4.346;2024-03-25T00:58:47;5.05;;;1.25;;
85160;SDS011;75526;43.726;4.346;2024-03-25T01:01:13;3.60;;;1.17;;
85160;SDS011;75526;43.726;4.346;2024-03-25T01:03:39;4.60;;;1.52;;
85160;SDS011;75526;43.726;4.346;2024-03-25T01:06:05;3.20;;;1.13;;
85160;SDS011;75526;43.726;4.346;2024-03-25T01:08:31;3.70;;;1.08;;
85160;SDS011;75526;43.726;4.346;2024-03-25T01:10:57;3.42;;;1.17;;
85160;SDS011;75526;43.726;4.346;2024-03-25T01:13:23;2.35;;;0.90;;
85160;SDS011;75526;43.726;4.346;2024-03-25T01:15:49;3.30;;;1.00;;
85160;SDS011;75526;43.726;4.346;2024-03-25T01:18:15;3.43;;;1.00;;
85160;SDS011;75526;43.726;4.346;2024-03-25T01:20:41;3.28;;;1.10;;
85160;SDS011;75526;43.726;4.346;2024-03-25T01:23:07;3.65;;;1.10;;
85160;SDS011;75526;43.726;4.346;2024-03-25T01:25:33;3.83;;;1.10;;
85160;SDS011;75526;43.726;4.346;2024-03-25T01:27:59;4.35;;;1.50;;
85160;SDS011;75526;43.726;4.346;2024-03-25T01:30:26;3.90;;;1.10;;
85160;SDS011;75526;43.726;4.346;2024-03-25T01:32:53;4.72;;;1.25;;
85160;SDS011;75526;43.726;4.346;2024-03-25T01:35:20;5.32;;;1.30;;
85160;SDS011;75526;43.726;4.346;2024-03-25T01:37:46;3.67;;;1.15;;
85160;SDS011;75526;43.726;4.346;2024-03-25T01:40:12;2.83;;;1.20;;
85160;SDS011;75526;43.726;4.346;2024-03-25T01:42:39;6.30;;;1.27;;
85160;SDS011;75526;43.726;4.346;2024-03-25T01:45:06;5.18;;;1.60;;
85160;SDS011;75526;43.726;4.346;2024-03-25T01:47:35;4.50;;;1.40;;
85160;SDS011;75526;43.726;4.346;2024-03-25T01:50:02;6.20;;;1.45;;
85160;SDS011;75526;43.726;4.346;2024-03-25T01:52:28;4.45;;;1.70;;
85160;SDS011;75526;43.726;4.346;2024-03-25T01:54:55;4.13;;;1.20;;
85160;SDS011;75526;43.726;4.346;2024-03-25T01:57:21;4.00;;;1.00;;
85160;SDS011;75526;43.726;4.346;2024-03-25T01:59:47;3.00;;;1.20;;
85160;SDS011;75526;43.726;4.346;2024-03-25T02:02:14;3.33;;;1.20;;
85160;SDS011;75526;43.726;4.346;2024-03-25T02:04:40;4.72;;;1.30;;
85160;SDS011;75526;43.726;4.346;2024-03-25T02:07:07;5.80;;;1.67;;
85160;SDS011;75526;43.726;4.346;2024-03-25T02:09:35;3.28;;;1.02;;
85160;SDS011;75526;43.726;4.346;2024-03-25T02:12:01;4.40;;;1.20;;
85160;SDS011;75526;43.726;4.346;2024-03-25T02:14:28;3.38;;;1.10;;
85160;SDS011;75526;43.726;4.346;2024-03-25T02:16:54;3.35;;;1.20;;
85160;SDS011;75526;43.726;4.346;2024-03-25T02:19:20;4.43;;;1.37;;
85160;SDS011;75526;43.726;4.346;2024-03-25T02:21:47;7.30;;;1.63;;
85160;SDS011;75526;43.726;4.346;2024-03-25T02:24:13;4.78;;;1.38;;
85160;SDS011;75526;43.726;4.346;2024-03-25T02:26:41;6.05;;;1.35;;
85160;SDS011;75526;43.726;4.346;2024-03-25T02:29:10;3.53;;;1.08;;
85160;SDS011;75526;43.726;4.346;2024-03-25T02:31:36;3.73;;;1.20;;
85160;SDS011;75526;43.726;4.346;2024-03-25T02:34:02;3.42;;;1.13;;
85160;SDS011;75526;43.726;4.346;2024-03-25T02:36:28;5.35;;;1.40;;
85160;SDS011;75526;43.726;4.346;2024-03-25T02:38:54;3.20;;;1.10;;
85160;SDS011;75526;43.726;4.346;2024-03-25T02:41:20;3.15;;;1.30;;
85160;SDS011;75526;43.726;4.346;2024-03-25T02:43:49;4.10;;;1.20;;
85160;SDS011;75526;43.726;4.346;2024-03-25T02:46:15;5.32;;;1.30;;
85160;SDS011;75526;43.726;4.346;2024-03-25T02:48:41;5.75;;;1.38;;
85160;SDS011;75526;43.726;4.346;2024-03-25T02:51:07;2.75;;;1.20;;
85160;SDS011;75526;43.726;4.346;2024-03-25T02:53:33;3.72;;;1.20;;
85160;SDS011;75526;43.726;4.346;2024-03-25T02:55:59;4.13;;;1.30;;
85160;SDS011;75526;43.726;4.346;2024-03-25T02:58:25;3.38;;;1.20;;
85160;SDS011;75526;43.726;4.346;2024-03-25T03:00:51;5.47;;;1.58;;
85160;SDS011;75526;43.726;4.346;2024-03-25T03:03:17;7.32;;;1.60;;
85160;SDS011;75526;43.726;4.346;2024-03-25T03:05:43;4.30;;;1.35;;
85160;SDS011;75526;43.726;4.346;2024-03-25T03:08:09;4.37;;;1.40;;
85160;SDS011;75526;43.726;4.346;2024-03-25T03:10:35;4.38;;;1.30;;
85160;SDS011;75526;43.726;4.346;2024-03-25T03:13:01;3.28;;;1.30;;
85160;SDS011;75526;43.726;4.346;2024-03-25T03:15:27;4.68;;;1.27;;
85160;SDS011;75526;43.726;4.346;2024-03-25T03:17:53;3.78;;;1.30;;
85160;SDS011;75526;43.726;4.346;2024-03-25T03:20:19;4.60;;;1.33;;
85160;SDS011;75526;43.726;4.346;2024-03-25T03:22:46;4.65;;;1.60;;
85160;SDS011;75526;43.726;4.346;2024-03-25T03:25:12;5.00;;;1.55;;
85160;SDS011;75526;43.726;4.346;2024-03-25T03:27:38;3.80;;;1.50;;
85160;SDS011;75526;43.726;4.346;2024-03-25T03:30:04;3.15;;;1.40;;
85160;SDS011;75526;43.726;4.346;2024-03-25T03:32:31;4.23;;;1.30;;
85160;SDS011;75526;43.726;4.346;2024-03-25T03:34:57;3.50;;;1.25;;
85160;SDS011;75526;43.726;4.346;2024-03-25T03:37:23;4.32;;;1.30;;
85160;SDS011;75526;43.726;4.346;2024-03-25T03:39:49;3.22;;;1.25;;
85160;SDS011;75526;43.726;4.346;2024-03-25T03:42:15;3.95;;;1.27;;
85160;SDS011;75526;43.726;4.346;2024-03-25T03:44:41;3.77;;;1.47;;
85160;SDS011;75526;43.726;4.346;2024-03-25T03:47:06;4.03;;;1.42;;
85160;SDS011;75526;43.726;4.346;2024-03-25T03:49:32;4.85;;;1.50;;
85160;SDS011;75526;43.726;4.346;2024-03-25T03:51:59;4.32;;;1.30;;
85160;SDS011;75526;43.726;4.346;2024-03-25T03:54:25;5.07;;;1.30;;
85160;SDS011;75526;43.726;4.346;2024-03-25T03:56:51;3.27;;;1.40;;
85160;SDS011;75526;43.726;4.346;2024-03-25T03:59:17;3.20;;;1.20;;
85160;SDS011;75526;43.726;4.346;2024-03-25T04:01:43;5.18;;;1.40;;
85160;SDS011;75526;43.726;4.346;2024-03-25T04:04:09;4.18;;;1.40;;
85160;SDS011;75526;43.726;4.346;2024-03-25T04:06:35;4.10;;;1.48;;
85160;SDS011;75526;43.726;4.346;2024-03-25T04:09:01;6.67;;;1.63;;
85160;SDS011;75526;43.726;4.346;2024-03-25T04:11:27;4.03;;;1.42;;
85160;SDS011;75526;43.726;4.346;2024-03-25T04:13:53;4.13;;;1.30;;
85160;SDS011;75526;43.726;4.346;2024-03-25T04:16:19;6.85;;;1.60;;
85160;SDS011;75526;43.726;4.346;2024-03-25T04:18:47;3.40;;;1.40;;
85160;SDS011;75526;43.726;4.346;2024-03-25T04:21:13;3.90;;;1.30;;
85160;SDS011;75526;43.726;4.346;2024-03-25T04:23:39;5.07;;;1.42;;
85160;SDS011;75526;43.726;4.346;2024-03-25T04:26:06;4.15;;;1.20;;
85160;SDS011;75526;43.726;4.346;2024-03-25T04:28:33;4.85;;;1.20;;
85160;SDS011;75526;43.726;4.346;2024-03-25T04:31:00;3.60;;;1.42;;
85160;SDS011;75526;43.726;4.346;2024-03-25T04:33:26;4.50;;;1.40;;
85160;SDS011;75526;43.726;4.346;2024-03-25T04:35:52;4.90;;;1.48;;
85160;SDS011;75526;43.726;4.346;2024-03-25T04:38:18;2.33;;;1.00;;
85160;SDS011;75526;43.726;4.346;2024-03-25T04:40:44;3.67;;;1.20;;
85160;SDS011;75526;43.726;4.346;2024-03-25T04:43:10;3.30;;;1.30;;
85160;SDS011;75526;43.726;4.346;2024-03-25T04:45:36;2.50;;;1.00;;
85160;SDS011;75526;43.726;4.346;2024-03-25T04:48:02;4.22;;;1.23;;
85160;SDS011;75526;43.726;4.346;2024-03-25T04:50:28;3.63;;;1.15;;
85160;SDS011;75526;43.726;4.346;2024-03-25T04:52:56;4.10;;;1.30;;
85160;SDS011;75526;43.726;4.346;2024-03-25T04:55:22;3.45;;;1.10;;
85160;SDS011;75526;43.726;4.346;2024-03-25T04:57:48;3.97;;;1.23;;
85160;SDS011;75526;43.726;4.346;2024-03-25T05:00:14;3.17;;;1.30;;
85160;SDS011;75526;43.726;4.346;2024-03-25T05:02:40;5.00;;;1.30;;
85160;SDS011;75526;43.726;4.346;2024-03-25T05:05:06;4.03;;;1.30;;
85160;SDS011;75526;43.726;4.346;2024-03-25T05:07:33;3.75;;;1.27;;
85160;SDS011;75526;43.726;4.346;2024-03-25T05:09:59;6.00;;;1.20;;
85160;SDS011;75526;43.726;4.346;2024-03-25T05:12:25;6.72;;;1.20;;
85160;SDS011;75526;43.726;4.346;2024-03-25T05:14:55;3.33;;;1.10;;
85160;SDS011;75526;43.726;4.346;2024-03-25T05:17:21;3.05;;;1.10;;
85160;SDS011;75526;43.726;4.346;2024-03-25T05:19:47;3.13;;;0.80;;
85160;SDS011;75526;43.726;4.346;2024-03-25T05:22:13;4.17;;;1.20;;
85160;SDS011;75526;43.726;4.346;2024-03-25T05:24:39;4.38;;;1.30;;
85160;SDS011;75526;43.726;4.346;2024-03-25T05:27:05;2.78;;;1.13;;
85160;SDS011;75526;43.726;4.346;2024-03-25T05:29:31;4.18;;;1.00;;
85160;SDS011;75526;43.726;4.346;2024-03-25T05:31:58;4.90;;;1.40;;
85160;SDS011;75526;43.726;4.346;2024-03-25T05:34:24;6.70;;;1.30;;
85160;SDS011;75526;43.726;4.346;2024-03-25T05:36:50;5.38;;;1.40;;
85160;SDS011;75526;43.726;4.346;2024-03-25T05:39:16;2.95;;;1.30;;
85160;SDS011;75526;43.726;4.346;2024-03-25T05:41:42;4.03;;;1.50;;
85160;SDS011;75526;43.726;4.346;2024-03-25T05:44:11;5.55;;;1.67;;
85160;SDS011;75526;43.726;4.346;2024-03-25T05:46:41;7.07;;;1.63;;
85160;SDS011;75526;43.726;4.346;2024-03-25T05:49:07;4.18;;;1.45;;
85160;SDS011;75526;43.726;4.346;2024-03-25T05:51:33;4.93;;;1.40;;
85160;SDS011;75526;43.726;4.346;2024-03-25T05:53:59;4.85;;;1.38;;
85160;SDS011;75526;43.726;4.346;2024-03-25T05:56:25;4.68;;;1.60;;
85160;SDS011;75526;43.726;4.346;2024-03-25T05:58:56;4.70;;;1.10;;
85160;SDS011;75526;43.726;4.346;2024-03-25T06:01:22;3.60;;;1.20;;
85160;SDS011;75526;43.726;4.346;2024-03-25T06:03:48;2.83;;;1.05;;
85160;SDS011;75526;43.726;4.346;2024-03-25T06:06:14;3.42;;;1.00;;
85160;SDS011;75526;43.726;4.346;2024-03-25T06:08:40;4.22;;;1.10;;
85160;SDS011;75526;43.726;4.346;2024-03-25T06:11:06;4.37;;;1.20;;
85160;SDS011;75526;43.726;4.346;2024-03-25T06:13:32;4.60;;;0.98;;
85160;SDS011;75526;43.726;4.346;2024-03-25T06:15:58;3.55;;;1.00;;
85160;SDS011;75526;43.726;4.346;2024-03-25T06:18:24;3.67;;;1.10;;
85160;SDS011;75526;43.726;4.346;2024-03-25T06:20:51;2.92;;;1.10;;
85160;SDS011;75526;43.726;4.346;2024-03-25T06:23:23;3.93;;;1.17;;
85160;SDS011;75526;43.726;4.346;2024-03-25T06:25:50;3.13;;;1.20;;
85160;SDS011;75526;43.726;4.346;2024-03-25T06:28:16;5.32;;;1.42;;
85160;SDS011;75526;43.726;4.346;2024-03-25T06:30:42;4.63;;;1.10;;
85160;SDS011;75526;43.726;4.346;2024-03-25T06:33:27;4.28;;;1.30;;
85160;SDS011;75526;43.726;4.346;2024-03-25T06:36:11;2.87;;;1.10;;
85160;SDS011;75526;43.726;4.346;2024-03-25T06:38:37;4.20;;;1.10;;
85160;SDS011;75526;43.726;4.346;2024-03-25T06:41:03;6.55;;;1.40;;
85160;SDS011;75526;43.726;4.346;2024-03-25T06:43:29;4.15;;;1.20;;
85160;SDS011;75526;43.726;4.346;2024-03-25T06:45:55;2.78;;;1.20;;
85160;SDS011;75526;43.726;4.346;2024-03-25T06:48:21;5.20;;;1.20;;
85160;SDS011;75526;43.726;4.346;2024-03-25T06:50:54;3.30;;;1.20;;
85160;SDS011;75526;43.726;4.346;2024-03-25T06:53:20;4.28;;;1.20;;
85160;SDS011;75526;43.726;4.346;2024-03-25T06:55:53;4.05;;;1.30;;
85160;SDS011;75526;43.726;4.346;2024-03-25T06:58:19;3.50;;;1.40;;
85160;SDS011;75526;43.726;4.346;2024-03-25T07:00:46;6.53;;;1.50;;
85160;SDS011;75526;43.726;4.346;2024-03-25T07:03:13;3.97;;;1.40;;
85160;SDS011;75526;43.726;4.346;2024-03-25T07:05:39;3.58;;;1.30;;
85160;SDS011;75526;43.726;4.346;2024-03-25T07:08:06;4.18;;;1.48;;
85160;SDS011;75526;43.726;4.346;2024-03-25T07:10:32;4.55;;;1.35;;
85160;SDS011;75526;43.726;4.346;2024-03-25T07:12:58;5.30;;;1.40;;
85160;SDS011;75526;43.726;4.346;2024-03-25T07:15:24;4.55;;;1.50;;
85160;SDS011;75526;43.726;4.346;2024-03-25T07:17:50;5.93;;;1.40;;
85160;SDS011;75526;43.726;4.346;2024-03-25T07:20:16;4.13;;;1.55;;
85160;SDS011;75526;43.726;4.346;2024-03-25T07:22:42;3.28;;;1.40;;
85160;SDS011;75526;43.726;4.346;2024-03-25T07:25:08;3.80;;;1.20;;
85160;SDS011;75526;43.726;4.346;2024-03-25T07:27:34;2.88;;;1.20;;
85160;SDS011;75526;43.726;4.346;2024-03-25T07:30:00;4.35;;;1.38;;
85160;SDS011;75526;43.726;4.346;2024-03-25T07:32:27;4.63;;;1.50;;
85160;SDS011;75526;43.726;4.346;2024-03-25T07:34:53;3.78;;;1.20;;
85160;SDS011;75526;43.726;4.346;2024-03-25T07:37:19;5.70;;;1.40;;
85160;SDS011;75526;43.726;4.346;2024-03-25T07:39:46;3.92;;;1.30;;
85160;SDS011;75526;43.726;4.346;2024-03-25T07:42:12;3.60;;;1.23;;
85160;SDS011;75526;43.726;4.346;2024-03-25T07:44:39;3.13;;;1.30;;
85160;SDS011;75526;43.726;4.346;2024-03-25T07:47:05;6.10;;;1.35;;
85160;SDS011;75526;43.726;4.346;2024-03-25T07:49:34;3.77;;;1.30;;
85160;SDS011;75526;43.726;4.346;2024-03-25T07:52:00;8.48;;;1.80;;
85160;SDS011;75526;43.726;4.346;2024-03-25T07:54:26;4.30;;;1.20;;
85160;SDS011;75526;43.726;4.346;2024-03-25T07:56:52;5.03;;;1.30;;
85160;SDS011;75526;43.726;4.346;2024-03-25T07:59:18;5.60;;;1.42;;
85160;SDS011;75526;43.726;4.346;2024-03-25T08:01:44;5.37;;;1.30;;
85160;SDS011;75526;43.726;4.346;2024-03-25T08:04:11;3.53;;;1.55;;
85160;SDS011;75526;43.726;4.346;2024-03-25T08:06:37;3.88;;;1.40;;
85160;SDS011;75526;43.726;4.346;2024-03-25T08:09:03;4.32;;;1.55;;
85160;SDS011;75526;43.726;4.346;2024-03-25T08:11:32;3.75;;;1.60;;
85160;SDS011;75526;43.726;4.346;2024-03-25T08:13:58;4.53;;;1.63;;
85160;SDS011;75526;43.726;4.346;2024-03-25T08:16:24;4.93;;;1.50;;
85160;SDS011;75526;43.726;4.346;2024-03-25T08:18:50;5.45;;;1.80;;
85160;SDS011;75526;43.726;4.346;2024-03-25T08:21:16;4.95;;;1.92;;
85160;SDS011;75526;43.726;4.346;2024-03-25T08:23:46;5.18;;;1.40;;
85160;SDS011;75526;43.726;4.346;2024-03-25T08:26:12;5.03;;;1.23;;
85160;SDS011;75526;43.726;4.346;2024-03-25T08:28:39;6.93;;;1.70;;
85160;SDS011;75526;43.726;4.346;2024-03-25T08:31:05;4.38;;;1.30;;
85160;SDS011;75526;43.726;4.346;2024-03-25T08:33:31;3.33;;;1.15;;
85160;SDS011;75526;43.726;4.346;2024-03-25T08:35:57;6.75;;;1.65;;
85160;SDS011;75526;43.726;4.346;2024-03-25T08:38:23;2.90;;;1.03;;
85160;SDS011;75526;43.726;4.346;2024-03-25T08:40:50;5.15;;;1.42;;
85160;SDS011;75526;43.726;4.346;2024-03-25T08:43:16;4.03;;;1.35;;
85160;SDS011;75526;43.726;4.346;2024-03-25T08:45:42;3.67;;;1.38;;
85160;SDS011;75526;43.726;4.346;2024-03-25T08:48:08;3.97;;;1.30;;
85160;SDS011;75526;43.726;4.346;2024-03-25T08:50:34;4.43;;;1.20;;
85160;SDS011;75526;43.726;4.346;2024-03-25T08:53:00;4.47;;;1.38;;
85160;SDS011;75526;43.726;4.346;2024-03-25T08:55:27;3.60;;;1.30;;
85160;SDS011;75526;43.726;4.346;2024-03-25T08:57:53;5.03;;;1.40;;
85160;SDS011;75526;43.726;4.346;2024-03-25T09:00:19;3.30;;;1.25;;
85160;SDS011;75526;43.726;4.346;2024-03-25T09:02:45;4.03;;;1.33;;
85160;SDS011;75526;43.726;4.346;2024-03-25T09:05:11;5.43;;;1.50;;
85160;SDS011;75526;43.726;4.346;2024-03-25T09:07:38;5.13;;;1.92;;
85160;SDS011;75526;43.726;4.346;2024-03-25T09:10:05;5.18;;;1.70;;
85160;SDS011;75526;43.726;4.346;2024-03-25T09:12:49;6.20;;;1.70;;
85160;SDS011;75526;43.726;4.346;2024-03-25T09:15:15;4.60;;;1.70;;
85160;SDS011;75526;43.726;4.346;2024-03-25T09:17:41;5.72;;;2.05;;
85160;SDS011;75526;43.726;4.346;2024-03-25T09:20:07;5.47;;;1.77;;
85160;SDS011;75526;43.726;4.346;2024-03-25T09:22:44;5.50;;;1.80;;
85160;SDS011;75526;43.726;4.346;2024-03-25T09:25:10;4.10;;;1.80;;
85160;SDS011;75526;43.726;4.346;2024-03-25T09:27:37;3.27;;;1.63;;
85160;SDS011;75526;43.726;4.346;2024-03-25T09:30:03;5.53;;;2.03;;
85160;SDS011;75526;43.726;4.346;2024-03-25T09:32:29;6.40;;;1.80;;
85160;SDS011;75526;43.726;4.346;2024-03-25T09:34:56;6.53;;;2.10;;
85160;SDS011;75526;43.726;4.346;2024-03-25T09:37:22;5.10;;;2.05;;
85160;SDS011;75526;43.726;4.346;2024-03-25T09:39:48;6.53;;;2.13;;
85160;SDS011;75526;43.726;4.346;2024-03-25T09:42:14;7.53;;;2.25;;
85160;SDS011;75526;43.726;4.346;2024-03-25T09:44:41;4.85;;;2.03;;
85160;SDS011;75526;43.726;4.346;2024-03-25T09:47:07;9.27;;;2.63;;
85160;SDS011;75526;43.726;4.346;2024-03-25T09:49:35;11.88;;;4.50;;
85160;SDS011;75526;43.726;4.346;2024-03-25T09:52:01;5.73;;;2.50;;
85160;SDS011;75526;43.726;4.346;2024-03-25T09:54:27;5.53;;;2.10;;
85160;SDS011;75526;43.726;4.346;2024-03-25T09:56:54;7.05;;;3.20;;
85160;SDS011;75526;43.726;4.346;2024-03-25T09:59:20;5.18;;;2.10;;
85160;SDS011;75526;43.726;4.346;2024-03-25T10:01:46;6.35;;;2.20;;
85160;SDS011;75526;43.726;4.346;2024-03-25T10:04:12;5.23;;;1.73;;
85160;SDS011;75526;43.726;4.346;2024-03-25T10:06:39;6.05;;;1.50;;
85160;SDS011;75526;43.726;4.346;2024-03-25T10:09:05;6.00;;;1.75;;
85160;SDS011;75526;43.726;4.346;2024-03-25T10:11:32;32.35;;;10.13;;
85160;SDS011;75526;43.726;4.346;2024-03-25T10:14:00;17.38;;;5.63;;
85160;SDS011;75526;43.726;4.346;2024-03-25T10:16:26;12.93;;;4.40;;
85160;SDS011;75526;43.726;4.346;2024-03-25T10:18:52;19.27;;;6.13;;
85160;SDS011;75526;43.726;4.346;2024-03-25T10:21:21;10.88;;;3.70;;
85160;SDS011;75526;43.726;4.346;2024-03-25T10:23:48;14.00;;;4.90;;
85160;SDS011;75526;43.726;4.346;2024-03-25T10:26:30;18.55;;;7.25;;
85160;SDS011;75526;43.726;4.346;2024-03-25T10:29:00;4.10;;;1.60;;
85160;SDS011;75526;43.726;4.346;2024-03-25T10:31:26;4.65;;;1.30;;
85160;SDS011;75526;43.726;4.346;2024-03-25T10:33:52;4.60;;;1.38;;
85160;SDS011;75526;43.726;4.346;2024-03-25T10:36:19;3.33;;;1.10;;
85160;SDS011;75526;43.726;4.346;2024-03-25T10:38:45;4.22;;;1.55;;
85160;SDS011;75526;43.726;4.346;2024-03-25T10:41:12;5.80;;;1.60;;
85160;SDS011;75526;43.726;4.346;2024-03-25T10:43:39;4.82;;;1.60;;
85160;SDS011;75526;43.726;4.346;2024-03-25T10:46:06;5.28;;;1.52;;
85160;SDS011;75526;43.726;4.346;2024-03-25T10:48:35;6.10;;;2.55;;
85160;SDS011;75526;43.726;4.346;2024-03-25T10:51:03;3.58;;;1.60;;
85160;SDS011;75526;43.726;4.346;2024-03-25T10:53:31;4.10;;;1.77;;
85160;SDS011;75526;43.726;4.346;2024-03-25T10:55:58;5.20;;;1.60;;
85160;SDS011;75526;43.726;4.346;2024-03-25T10:58:26;5.22;;;2.10;;
85160;SDS011;75526;43.726;4.346;2024-03-25T11:00:53;6.68;;;2.00;;
85160;SDS011;75526;43.726;4.346;2024-03-25T11:03:22;6.35;;;1.70;;
85160;SDS011;75526;43.726;4.346;2024-03-25T11:05:49;4.90;;;1.90;;
85160;SDS011;75526;43.726;4.346;2024-03-25T11:08:15;5.57;;;2.42;;
85160;SDS011;75526;43.726;4.346;2024-03-25T11:10:45;5.40;;;2.00;;
85160;SDS011;75526;43.726;4.346;2024-03-25T11:13:16;6.22;;;2.17;;
85160;SDS011;75526;43.726;4.346;2024-03-25T11:15:43;6.03;;;2.10;;
85160;SDS011;75526;43.726;4.346;2024-03-25T11:18:12;6.47;;;1.93;;
85160;SDS011;75526;43.726;4.346;2024-03-25T11:20:39;4.70;;;1.63;;
85160;SDS011;75526;43.726;4.346;2024-03-25T11:23:12;4.72;;;1.55;;
85160;SDS011;75526;43.726;4.346;2024-03-25T11:25:38;5.07;;;1.75;;
85160;SDS011;75526;43.726;4.346;2024-03-25T11:28:05;5.00;;;1.80;;
85160;SDS011;75526;43.726;4.346;2024-03-25T11:30:31;6.23;;;1.57;;
85160;SDS011;75526;43.726;4.346;2024-03-25T11:33:00;4.93;;;1.42;;
85160;SDS011;75526;43.726;4.346;2024-03-25T11:35:26;4.85;;;1.60;;
85160;SDS011;75526;43.726;4.346;2024-03-25T11:37:52;8.50;;;1.42;;
85160;SDS011;75526;43.726;4.346;2024-03-25T11:40:19;4.15;;;1.48;;
85160;SDS011;75526;43.726;4.346;2024-03-25T11:42:45;4.20;;;1.50;;
85160;SDS011;75526;43.726;4.346;2024-03-25T11:45:15;5.30;;;1.30;;
85160;SDS011;75526;43.726;4.346;2024-03-25T11:47:45;6.13;;;1.30;;
85160;SDS011;75526;43.726;4.346;2024-03-25T11:50:12;4.38;;;1.20;;
85160;SDS011;75526;43.726;4.346;2024-03-25T11:52:38;7.32;;;1.67;;
85160;SDS011;75526;43.726;4.346;2024-03-25T11:55:04;6.40;;;1.40;;
85160;SDS011;75526;43.726;4.346;2024-03-25T11:57:30;7.53;;;1.30;;
85160;SDS011;75526;43.726;4.346;2024-03-25T11:59:58;5.55;;;1.25;;
85160;SDS011;75526;43.726;4.346;2024-03-25T12:02:25;8.38;;;1.27;;
85160;SDS011;75526;43.726;4.346;2024-03-25T12:04:51;7.70;;;1.17;;
85160;SDS011;75526;43.726;4.346;2024-03-25T12:07:17;5.40;;;1.40;;
85160;SDS011;75526;43.726;4.346;2024-03-25T12:09:43;7.72;;;1.30;;
85160;SDS011;75526;43.726;4.346;2024-03-25T12:12:28;6.63;;;1.30;;
85160;SDS011;75526;43.726;4.346;2024-03-25T12:14:55;4.57;;;1.27;;
85160;SDS011;75526;43.726;4.346;2024-03-25T12:17:21;5.65;;;1.45;;
85160;SDS011;75526;43.726;4.346;2024-03-25T12:20:03;8.07;;;1.47;;
85160;SDS011;75526;43.726;4.346;2024-03-25T12:22:30;6.88;;;1.30;;
85160;SDS011;75526;43.726;4.346;2024-03-25T12:24:57;9.13;;;1.30;;
85160;SDS011;75526;43.726;4.346;2024-03-25T12:27:24;9.15;;;1.40;;
85160;SDS011;75526;43.726;4.346;2024-03-25T12:29:57;7.35;;;1.30;;
85160;SDS011;75526;43.726;4.346;2024-03-25T12:32:30;8.10;;;1.50;;
85160;SDS011;75526;43.726;4.346;2024-03-25T12:34:57;8.98;;;1.30;;
85160;SDS011;75526;43.726;4.346;2024-03-25T12:37:23;8.50;;;1.35;;
85160;SDS011;75526;43.726;4.346;2024-03-25T12:39:49;10.10;;;1.30;;
85160;SDS011;75526;43.726;4.346;2024-03-25T12:42:15;6.18;;;1.40;;
85160;SDS011;75526;43.726;4.346;2024-03-25T12:44:41;7.23;;;1.17;;
85160;SDS011;75526;43.726;4.346;2024-03-25T12:47:07;8.10;;;1.40;;
85160;SDS011;75526;43.726;4.346;2024-03-25T12:49:33;8.70;;;2.00;;
85160;SDS011;75526;43.726;4.346;2024-03-25T12:51:59;6.70;;;1.67;;
85160;SDS011;75526;43.726;4.346;2024-03-25T12:54:25;5.20;;;1.38;;
85160;SDS011;75526;43.726;4.346;2024-03-25T12:56:51;7.40;;;1.63;;
85160;SDS011;75526;43.726;4.346;2024-03-25T12:59:17;6.22;;;1.70;;
85160;SDS011;75526;43.726;4.346;2024-03-25T13:01:43;6.35;;;1.48;;
85160;SDS011;75526;43.726;4.346;2024-03-25T13:04:09;6.97;;;1.45;;
85160;SDS011;75526;43.726;4.346;2024-03-25T13:06:35;6.72;;;1.40;;
85160;SDS011;75526;43.726;4.346;2024-03-25T13:09:01;9.10;;;1.30;;
85160;SDS011;75526;43.726;4.346;2024-03-25T13:11:27;5.88;;;1.40;;
85160;SDS011;75526;43.726;4.346;2024-03-25T13:13:54;7.53;;;1.50;;
85160;SDS011;75526;43.726;4.346;2024-03-25T13:16:20;10.00;;;1.50;;
85160;SDS011;75526;43.726;4.346;2024-03-25T13:18:46;6.95;;;1.55;;
85160;SDS011;75526;43.726;4.346;2024-03-25T13:21:12;7.70;;;1.43;;
85160;SDS011;75526;43.726;4.346;2024-03-25T13:23:38;5.32;;;1.10;;
85160;SDS011;75526;43.726;4.346;2024-03-25T13:26:04;7.85;;;1.58;;
85160;SDS011;75526;43.726;4.346;2024-03-25T13:28:30;8.05;;;1.10;;
85160;SDS011;75526;43.726;4.346;2024-03-25T13:30:56;11.50;;;1.70;;
85160;SDS011;75526;43.726;4.346;2024-03-25T13:33:22;10.23;;;1.60;;
85160;SDS011;75526;43.726;4.346;2024-03-25T13:35:48;10.57;;;1.60;;
85160;SDS011;75526;43.726;4.346;2024-03-25T13:38:14;9.13;;;1.30;;
85160;SDS011;75526;43.726;4.346;2024-03-25T13:40:40;8.15;;;1.75;;
85160;SDS011;75526;43.726;4.346;2024-03-25T13:43:06;8.68;;;1.23;;
85160;SDS011;75526;43.726;4.346;2024-03-25T13:45:34;7.13;;;1.40;;
85160;SDS011;75526;43.726;4.346;2024-03-25T13:48:00;9.55;;;1.40;;
85160;SDS011;75526;43.726;4.346;2024-03-25T13:50:26;7.10;;;1.30;;
85160;SDS011;75526;43.726;4.346;2024-03-25T13:52:52;7.43;;;1.85;;
85160;SDS011;75526;43.726;4.346;2024-03-25T13:55:18;10.65;;;1.52;;
85160;SDS011;75526;43.726;4.346;2024-03-25T13:57:44;9.57;;;1.73;;
85160;SDS011;75526;43.726;4.346;2024-03-25T14:00:10;8.98;;;1.40;;
85160;SDS011;75526;43.726;4.346;2024-03-25T14:02:37;7.97;;;1.50;;
85160;SDS011;75526;43.726;4.346;2024-03-25T14:05:04;9.30;;;1.60;;
85160;SDS011;75526;43.726;4.346;2024-03-25T14:07:33;8.40;;;1.60;;
85160;SDS011;75526;43.726;4.346;2024-03-25T14:09:59;8.87;;;1.80;;
85160;SDS011;75526;43.726;4.346;2024-03-25T14:12:25;6.65;;;1.40;;
85160;SDS011;75526;43.726;4.346;2024-03-25T14:14:51;13.57;;;1.60;;
85160;SDS011;75526;43.726;4.346;2024-03-25T14:17:17;9.02;;;2.22;;
85160;SDS011;75526;43.726;4.346;2024-03-25T14:19:43;10.57;;;1.35;;
85160;SDS011;75526;43.726;4.346;2024-03-25T14:22:09;7.83;;;1.30;;
85160;SDS011;75526;43.726;4.346;2024-03-25T14:24:35;10.32;;;1.48;;
85160;SDS011;75526;43.726;4.346;2024-03-25T14:27:01;9.57;;;1.75;;
85160;SDS011;75526;43.726;4.346;2024-03-25T14:29:28;11.75;;;1.40;;
85160;SDS011;75526;43.726;4.346;2024-03-25T14:31:54;10.05;;;1.60;;
85160;SDS011;75526;43.726;4.346;2024-03-25T14:34:20;6.90;;;1.60;;
85160;SDS011;75526;43.726;4.346;2024-03-25T14:36:46;11.63;;;1.70;;
85160;SDS011;75526;43.726;4.346;2024-03-25T14:39:12;9.70;;;2.03;;
85160;SDS011;75526;43.726;4.346;2024-03-25T14:41:39;12.07;;;1.73;;
85160;SDS011;75526;43.726;4.346;2024-03-25T14:44:05;9.57;;;2.35;;